Lucky Maccamp, Wyoming
Current Conditions -  °F | °C
As of 9:53 AM on Thursday 30 Oct 2014 (Local Time) from KLND Reporting Station
Clear Clear  
Wind Chill: 40°   Ceiling: Unl
Heat Index: 40°   Visibility: 10mi
Dew Point: 24°   Wind: 0mph
Humidity: 53%   Direction: NA
Pressure: 30.34"   Gusts: NA
Location:  43.1005°N, 108.934°W
Report Text: KLND 301553Z AUTO 00000KT 10SM CLR 04/M04 A3034 RMK AO2 SLP272 T00441044 TSNO
Loading
Personal Weather Stations






























Interactive Weather Map
Tropical Storm Tracking
New forecast layout! Learn more

10-Day Weather Forecast

Advertisements
Track Severe Weather on mobile